Time;durP1;ratioP1;P1;durP2;ratioP2;P2;SDS_P1;SDS_P2;PMS_P1;PMS_P2;Temp;Humidity;BMP_temperature;BMP_pressure;BME280_temperature;BME280_humidity;BME280_pressure;Samples;Min_cycle;Max_cycle;Signal;HPM_P1;HPM_P2
2024/01/21 00:01:04;;;;;;;9.48;4.30;;;;;;;-2.49;93.19;102322.53;4955645;29;20027;-91
2024/01/21 00:03:29;;;;;;;9.02;4.22;;;;;;;-2.52;93.67;102308.78;4956079;29;20130;-91
2024/01/21 00:05:54;;;;;;;7.88;3.83;;;;;;;-2.51;93.54;102318.16;4956097;29;20019;-91
2024/01/21 00:08:20;;;;;;;8.52;4.10;;;;;;;-2.55;93.32;102308.56;4959345;29;20054;-92
2024/01/21 00:10:45;;;;;;;7.35;3.63;;;;;;;-2.70;92.72;102278.88;4956014;28;20039;-92
2024/01/21 00:13:10;;;;;;;8.48;4.07;;;;;;;-2.62;93.67;102293.72;4955742;28;20081;-92
2024/01/21 00:15:36;;;;;;;7.97;3.90;;;;;;;-2.68;94.22;102282.38;4956220;29;20070;-91
2024/01/21 00:18:01;;;;;;;8.30;3.90;;;;;;;-2.63;93.95;102287.75;4956182;29;20070;-91
2024/01/21 00:20:30;;;;;;;10.05;4.18;;;;;;;-2.70;93.55;102273.78;4956203;29;20031;-92
2024/01/21 00:22:57;;;;;;;9.02;4.22;;;;;;;-2.71;94.11;102277.13;4956678;29;20383;-92
2024/01/21 00:25:22;;;;;;;9.32;4.05;;;;;;;-2.71;93.53;102281.31;4956091;29;20110;-92
2024/01/21 00:27:47;;;;;;;6.78;3.38;;;;;;;-2.73;93.13;102286.31;4955836;29;20065;-92
2024/01/21 00:30:13;;;;;;;6.88;3.30;;;;;;;-2.78;92.92;102274.97;4956308;29;20050;-92
2024/01/21 00:32:38;;;;;;;6.28;3.22;;;;;;;-2.78;92.89;102274.97;4956764;29;20023;-92
2024/01/21 00:35:04;;;;;;;5.65;2.97;;;;;;;-2.80;91.76;102269.81;4956715;29;20031;-92
2024/01/21 00:37:29;;;;;;;5.90;2.80;;;;;;;-2.84;92.49;102265.31;4955871;28;20057;-92
2024/01/21 00:39:55;;;;;;;8.27;3.55;;;;;;;-2.93;91.20;102256.25;4955861;29;20122;-92
2024/01/21 00:42:20;;;;;;;6.22;3.25;;;;;;;-2.92;91.95;102263.06;4955909;29;20097;-92
2024/01/21 00:44:45;;;;;;;6.97;3.53;;;;;;;-2.95;92.21;102262.13;4955845;29;20031;-92
2024/01/21 00:47:11;;;;;;;9.63;4.15;;;;;;;-3.04;93.65;102251.34;4955426;29;20475;-92
2024/01/21 00:49:39;;;;;;;8.05;3.70;;;;;;;-2.99;92.83;102260.16;4955645;29;20038;-91
2024/01/21 00:52:05;;;;;;;8.38;3.60;;;;;;;-2.95;93.35;102271.38;4956066;29;20039;-92
2024/01/21 00:54:30;;;;;;;8.20;3.40;;;;;;;-2.97;93.05;102276.38;4963031;28;20023;-92
2024/01/21 00:56:55;;;;;;;7.07;3.45;;;;;;;-2.98;92.35;102274.63;4969939;28;20054;-92
2024/01/21 00:59:21;;;;;;;7.95;3.63;;;;;;;-3.04;90.18;102258.09;4956153;29;20088;-92
2024/01/21 01:01:46;;;;;;;5.72;3.28;;;;;;;-3.04;91.51;102264.03;4956300;29;20035;-92
2024/01/21 01:04:11;;;;;;;7.25;3.42;;;;;;;-3.06;91.17;102262.19;4955616;29;20027;-92
2024/01/21 01:06:37;;;;;;;7.40;3.78;;;;;;;-3.07;89.95;102248.63;4960620;28;20149;-92
2024/01/21 01:09:17;;;;;;;7.63;3.75;;;;;;;-3.13;91.47;102241.50;4974707;28;20023;-93
2024/01/21 01:11:49;;;;;;;7.78;3.58;;;;;;;-3.16;90.50;102233.69;4974792;28;20027;-92
2024/01/21 01:14:26;;;;;;;8.02;3.83;;;;;;;-3.26;92.24;102211.91;4974517;28;20122;-92
2024/01/21 01:17:01;;;;;;;8.65;3.67;;;;;;;-3.13;92.00;102233.00;4975485;28;20062;-92
2024/01/21 01:19:32;;;;;;;8.07;3.75;;;;;;;-3.30;91.92;102204.00;4974889;28;20031;-93
2024/01/21 01:22:01;;;;;;;9.60;4.30;;;;;;;-3.16;92.18;102208.28;4975261;28;20026;-92
2024/01/21 01:24:26;;;;;;;10.98;4.60;;;;;;;-3.33;91.82;102181.84;4974775;28;20062;-92
2024/01/21 01:26:52;;;;;;;8.90;4.40;;;;;;;-3.31;92.09;102189.53;4975514;28;20035;-93
2024/01/21 01:29:29;;;;;;;10.07;4.13;;;;;;;-3.33;91.61;102175.91;4975005;28;20035;-93
2024/01/21 01:31:57;;;;;;;7.95;3.85;;;;;;;-3.45;91.38;102171.78;4975181;28;20034;-92
2024/01/21 01:34:35;;;;;;;8.93;4.18;;;;;;;-3.49;91.44;102167.28;4974629;28;20054;-92
2024/01/21 01:37:11;;;;;;;9.57;4.22;;;;;;;-3.50;90.48;102162.13;4975232;28;20050;-93
2024/01/21 01:39:39;;;;;;;9.05;4.43;;;;;;;-3.43;91.60;102182.91;4975330;28;20042;-92
2024/01/21 01:42:11;;;;;;;7.65;4.00;;;;;;;-3.53;90.46;102156.84;4974665;28;20030;-93
2024/01/21 01:44:42;;;;;;;7.78;3.97;;;;;;;-3.59;91.96;102140.44;4975525;28;20027;-92
2024/01/21 01:47:13;;;;;;;7.13;3.72;;;;;;;-3.48;91.81;102150.38;4975238;28;20089;-93
2024/01/21 01:49:48;;;;;;;6.97;3.50;;;;;;;-3.55;90.79;102133.94;4978502;28;20030;-93
2024/01/21 01:52:38;;;;;;;7.53;3.72;;;;;;;-3.44;91.39;102152.34;4978818;28;20057;-93
2024/01/21 01:55:03;;;;;;;7.28;3.90;;;;;;;-3.42;91.86;102141.50;4979645;28;20481;-92
2024/01/21 01:57:30;;;;;;;10.93;4.38;;;;;;;-3.57;91.23;102110.09;4980350;28;20126;-92
2024/01/21 01:59:55;;;;;;;10.25;4.35;;;;;;;-3.54;91.11;102104.34;4989427;28;20019;-90
2024/01/21 02:02:21;;;;;;;10.70;4.65;;;;;;;-3.43;90.61;102131.28;4982173;28;20364;-92
2024/01/21 02:04:47;;;;;;;11.05;4.70;;;;;;;-3.39;89.14;102133.22;4982885;28;20027;-92
2024/01/21 02:07:14;;;;;;;9.20;4.45;;;;;;;-3.47;90.20;102119.16;4983579;28;20170;-92
2024/01/21 02:10:00;;;;;;;12.63;5.38;;;;;;;-3.44;90.67;102116.81;4985683;28;20039;-91
2024/01/21 02:12:28;;;;;;;12.80;4.97;;;;;;;-3.44;nan;102121.91;4987633;28;20098;-92
2024/01/21 02:17:24;;;;;;;9.52;4.43;;;;;;;-3.41;88.66;102110.25;5002361;23;20055;-92
2024/01/21 02:19:50;;;;;;;13.52;5.68;;;;;;;-3.34;88.94;102106.44;4964455;29;20038;-93
2024/01/21 02:22:15;;;;;;;12.45;5.63;;;;;;;-3.36;89.72;102105.47;4959109;29;20527;-93
2024/01/21 02:24:40;;;;;;;13.23;5.43;;;;;;;-3.38;89.85;102098.56;4958660;29;20110;-93
2024/01/21 02:27:06;;;;;;;12.18;5.10;;;;;;;-3.37;89.92;102097.78;4958182;29;20015;-92
2024/01/21 02:29:31;;;;;;;12.68;4.75;;;;;;;-3.39;88.28;102085.00;4958429;29;20027;-93
2024/01/21 02:31:57;;;;;;;10.05;4.47;;;;;;;-3.32;89.76;102089.66;4958177;28;20027;-93
2024/01/21 02:34:23;;;;;;;10.07;4.35;;;;;;;-3.37;88.34;102082.53;4958038;29;20043;-92
2024/01/21 02:36:48;;;;;;;12.45;5.00;;;;;;;-3.31;89.04;102075.28;4958126;29;20416;-92
2024/01/21 02:39:14;;;;;;;10.07;4.47;;;;;;;-3.27;87.75;102075.59;4957998;29;20070;-92
2024/01/21 02:41:39;;;;;;;10.75;4.95;;;;;;;-3.22;88.15;102057.19;4958253;29;20055;-92
2024/01/21 02:44:04;;;;;;;12.20;4.93;;;;;;;-3.16;88.12;102060.13;4957520;29;20039;-92
2024/01/21 02:46:30;;;;;;;13.52;4.97;;;;;;;-3.30;87.81;102038.97;4958385;29;20482;-92
2024/01/21 02:48:55;;;;;;;11.65;4.97;;;;;;;-3.20;87.68;102055.66;4958278;29;20431;-92
2024/01/21 02:51:20;;;;;;;12.75;4.68;;;;;;;-3.15;88.65;102049.16;4957793;28;20118;-93
2024/01/21 02:53:45;;;;;;;10.80;4.50;;;;;;;-3.02;87.17;102051.66;4957770;29;20023;-92
2024/01/21 02:56:24;;;;;;;12.27;4.78;;;;;;;-3.04;87.76;102057.44;4957948;29;20046;-93
2024/01/21 02:58:50;;;;;;;12.30;4.47;;;;;;;-3.01;87.88;102061.03;4957649;28;20119;-92
2024/01/21 03:01:16;;;;;;;10.80;4.50;;;;;;;-2.99;87.74;102059.47;4961380;28;20027;-92
2024/01/21 03:03:42;;;;;;;12.30;4.73;;;;;;;-2.92;87.84;102052.19;4977328;28;20027;-92
2024/01/21 03:06:08;;;;;;;11.00;4.55;;;;;;;-2.92;87.93;102062.34;4976503;28;20479;-92
2024/01/21 03:08:33;;;;;;;9.20;4.13;;;;;;;-2.91;88.13;102048.88;4977690;28;20027;-92
2024/01/21 03:10:58;;;;;;;9.57;3.95;;;;;;;-2.95;87.95;102036.00;4976732;28;20022;-92
2024/01/21 03:13:23;;;;;;;8.65;4.05;;;;;;;-2.87;88.22;102036.44;4976097;28;20479;-92
2024/01/21 03:15:49;;;;;;;8.30;4.05;;;;;;;-2.88;87.30;102026.19;4977171;28;20046;-92
2024/01/21 03:18:14;;;;;;;7.03;3.65;;;;;;;-2.86;87.73;102012.78;4976971;28;20049;-91
2024/01/21 03:20:39;;;;;;;9.20;4.05;;;;;;;-2.80;87.67;102018.25;4976229;28;20098;-92
2024/01/21 03:23:04;;;;;;;10.10;4.40;;;;;;;-2.81;87.71;102013.06;4976453;28;20066;-91
2024/01/21 03:25:30;;;;;;;10.30;4.50;;;;;;;-2.80;88.19;102017.34;4977109;28;20467;-92
2024/01/21 03:27:55;;;;;;;7.93;4.10;;;;;;;-2.79;88.02;102019.09;4976983;28;20498;-91
2024/01/21 03:30:21;;;;;;;10.02;4.05;;;;;;;-2.81;88.16;102020.69;4976160;28;20023;-92
2024/01/21 03:32:46;;;;;;;8.05;3.78;;;;;;;-2.82;87.87;102029.13;4975985;28;20035;-92
2024/01/21 03:35:11;;;;;;;9.32;4.13;;;;;;;-2.80;88.06;102012.28;4976141;28;20030;-92
2024/01/21 03:37:38;;;;;;;11.07;4.22;;;;;;;-2.77;87.65;102019.22;4976281;28;20423;-92
2024/01/21 03:40:04;;;;;;;;;;;;;;;-2.79;87.60;102016.56;4976708;28;20058;-92
2024/01/21 03:42:30;;;;;;;6.97;3.30;;;;;;;-2.87;86.72;102005.09;4975772;28;19918;-92
2024/01/21 03:44:55;;;;;;;5.30;3.00;;;;;;;-2.88;87.86;102003.34;4976056;28;20435;-93
2024/01/21 03:47:20;;;;;;;6.95;3.40;;;;;;;-2.80;86.92;102005.53;4975822;28;20037;-92
2024/01/21 03:49:46;;;;;;;6.40;3.40;;;;;;;-2.77;85.94;102001.44;4976191;28;20467;-92
2024/01/21 03:52:11;;;;;;;7.93;3.50;;;;;;;-2.65;87.49;101997.91;4975147;28;20034;-92
2024/01/21 03:54:36;;;;;;;7.95;3.53;;;;;;;-2.57;86.96;102000.91;4976216;28;20111;-92
2024/01/21 03:57:01;;;;;;;9.60;3.92;;;;;;;-2.50;86.71;101994.50;4975946;28;20031;-91
2024/01/21 03:59:27;;;;;;;8.70;3.90;;;;;;;-2.49;86.68;101978.47;4975690;28;20019;-91
2024/01/21 04:01:52;;;;;;;8.73;3.83;;;;;;;-2.44;85.22;101961.78;4975795;28;20088;-91
2024/01/21 04:04:17;;;;;;;7.38;3.42;;;;;;;-2.39;86.21;101959.50;4975646;28;20042;-92
2024/01/21 04:06:43;;;;;;;9.43;4.10;;;;;;;-2.24;85.87;101965.44;4974923;28;20446;-91
2024/01/21 04:09:10;;;;;;;8.82;3.92;;;;;;;-2.27;84.18;101964.41;4975414;28;20030;-91
2024/01/21 04:11:35;;;;;;;8.52;3.92;;;;;;;-2.12;84.22;101944.88;4975149;28;20062;-91
2024/01/21 04:14:01;;;;;;;9.30;4.20;;;;;;;-2.21;83.84;101947.81;4974948;28;20030;-91
2024/01/21 04:16:26;;;;;;;8.65;3.90;;;;;;;-2.20;85.04;101946.16;4975255;28;20062;-91
2024/01/21 04:18:52;;;;;;;7.72;3.83;;;;;;;-2.20;85.08;101941.94;4975453;28;20019;-91
2024/01/21 04:21:17;;;;;;;9.85;4.30;;;;;;;-1.99;83.70;101948.09;4975215;28;20529;-90
2024/01/21 04:23:42;;;;;;;8.32;3.78;;;;;;;-2.15;84.01;101944.75;4975424;28;20027;-91
2024/01/21 04:26:08;;;;;;;11.23;3.83;;;;;;;-2.07;83.81;101963.84;4975095;28;20030;-90
2024/01/21 04:28:33;;;;;;;8.00;3.80;;;;;;;-2.12;84.16;101959.28;4974608;28;20030;-91
2024/01/21 04:30:58;;;;;;;7.85;3.65;;;;;;;-2.06;85.04;101962.16;4975584;28;20039;-91
2024/01/21 04:33:24;;;;;;;7.50;3.38;;;;;;;-2.05;84.85;101953.72;4975427;28;20093;-90
2024/01/21 04:35:49;;;;;;;6.65;3.33;;;;;;;-2.07;84.01;101948.56;4975030;28;20027;-91
2024/01/21 04:38:14;;;;;;;7.00;3.20;;;;;;;-2.06;84.54;101932.53;4974949;28;20125;-89
2024/01/21 04:40:40;;;;;;;6.65;3.20;;;;;;;-2.12;83.94;101919.44;4975376;28;20070;-90
2024/01/21 04:43:06;;;;;;;7.75;3.63;;;;;;;-2.03;83.88;101922.47;4974446;28;20101;-89
2024/01/21 04:45:31;;;;;;;6.75;3.53;;;;;;;-1.96;85.04;101898.25;4975387;28;20019;-90
2024/01/21 04:47:56;;;;;;;7.80;3.70;;;;;;;-1.90;84.13;101895.16;4975068;28;20038;-89
2024/01/21 04:50:21;;;;;;;10.82;4.40;;;;;;;-1.78;82.99;101870.34;4973958;28;20391;-89
2024/01/21 04:52:47;;;;;;;10.98;4.38;;;;;;;-1.85;84.28;101873.38;4974617;28;20045;-89
2024/01/21 04:55:12;;;;;;;9.98;4.07;;;;;;;-1.75;83.82;101862.88;4974693;28;20022;-89
2024/01/21 04:57:39;;;;;;;13.05;4.68;;;;;;;-1.60;83.84;101865.31;4955844;28;20023;-90
2024/01/21 05:00:05;;;;;;;11.98;4.57;;;;;;;-1.57;82.79;101850.22;4955677;29;20038;-89
2024/01/21 05:02:31;;;;;;;12.07;4.63;;;;;;;-1.13;80.84;101855.78;4955144;29;20041;-89
2024/01/21 05:04:57;;;;;;;12.50;5.00;;;;;;;-1.36;80.97;101849.53;4955490;29;20027;-89
2024/01/21 05:07:22;;;;;;;12.10;5.35;;;;;;;-1.09;79.43;101844.94;4955347;29;20442;-89
2024/01/21 05:09:47;;;;;;;12.43;5.13;;;;;;;-1.15;80.11;101866.69;4955126;29;20027;-89
2024/01/21 05:12:12;;;;;;;13.30;5.40;;;;;;;-1.15;79.26;101854.84;4955362;29;20019;-89
2024/01/21 05:14:38;;;;;;;11.45;5.05;;;;;;;-1.03;79.77;101856.22;4954712;29;20023;-90
2024/01/21 05:17:03;;;;;;;12.65;5.30;;;;;;;-1.04;80.48;101849.38;4954678;28;20145;-89
2024/01/21 05:19:28;;;;;;;11.45;4.93;;;;;;;-0.99;78.69;101869.19;4955509;29;20028;-89
2024/01/21 05:21:54;;;;;;;12.82;5.03;;;;;;;-0.94;79.77;101867.72;4955443;28;20039;-90
2024/01/21 05:24:19;;;;;;;12.00;4.70;;;;;;;-0.89;79.13;101872.19;4957798;28;20069;-90
2024/01/21 05:26:45;;;;;;;15.60;5.32;;;;;;;-0.75;78.95;101871.19;4958739;29;20031;-90
2024/01/21 05:29:11;;;;;;;13.93;5.25;;;;;;;-0.81;76.53;101851.38;4959208;29;20074;-90
2024/01/21 05:31:37;;;;;;;12.97;5.17;;;;;;;-0.75;77.15;101849.88;4959506;29;20118;-90
2024/01/21 05:34:02;;;;;;;15.63;6.03;;;;;;;-0.65;77.45;101849.53;4959324;29;20345;-90
2024/01/21 05:36:27;;;;;;;15.10;5.85;;;;;;;-0.58;77.55;101846.47;4959559;29;20039;-90
2024/01/21 05:38:53;;;;;;;13.63;5.63;;;;;;;-0.59;78.12;101854.03;4959403;29;20089;-90
2024/01/21 05:41:18;;;;;;;14.18;5.78;;;;;;;-0.55;78.47;101849.16;4959603;29;20056;-90
2024/01/21 05:43:43;;;;;;;14.02;5.80;;;;;;;-0.55;78.08;101868.69;4959964;29;20456;-90
2024/01/21 05:46:09;;;;;;;15.27;5.90;;;;;;;-0.48;77.73;101856.28;4958890;29;20166;-89
2024/01/21 05:48:34;;;;;;;13.80;5.70;;;;;;;-0.40;77.26;101843.91;4960136;29;20163;-90
2024/01/21 05:51:00;;;;;;;12.77;5.57;;;;;;;-0.40;77.85;101851.56;4959522;29;20487;-90
2024/01/21 05:53:25;;;;;;;12.95;5.55;;;;;;;-0.49;77.30;101852.00;4959361;28;20039;-89
2024/01/21 05:55:51;;;;;;;14.15;5.60;;;;;;;-0.42;76.92;101842.06;4959854;29;20019;-90
2024/01/21 05:58:16;;;;;;;13.63;5.55;;;;;;;-0.41;76.03;101847.25;4959322;29;20031;-89
2024/01/21 06:00:41;;;;;;;14.90;5.90;;;;;;;-0.45;76.92;101839.41;4959979;29;20057;-90
2024/01/21 06:03:06;;;;;;;13.00;5.63;;;;;;;-0.42;77.66;101844.63;4960483;29;20027;-90
2024/01/21 06:05:32;;;;;;;12.75;5.15;;;;;;;-0.44;76.94;101847.09;4961650;29;20024;-91
2024/01/21 06:07:57;;;;;;;15.55;5.90;;;;;;;-0.44;76.82;101838.56;4962007;29;20050;-89
2024/01/21 06:10:22;;;;;;;13.93;5.75;;;;;;;-0.35;77.50;101819.47;4963164;29;20499;-89
2024/01/21 06:12:48;;;;;;;12.00;5.55;;;;;;;-0.36;77.06;101819.41;4965596;29;20074;-90
2024/01/21 06:15:13;;;;;;;14.02;5.75;;;;;;;-0.33;76.30;101828.06;4968250;29;20096;-90
2024/01/21 06:17:39;;;;;;;14.07;6.10;;;;;;;-0.27;75.45;101837.66;4978061;28;20073;-89
2024/01/21 06:20:11;;;;;;;14.85;6.15;;;;;;;-0.18;75.55;101830.44;4967244;28;20471;-89
2024/01/21 06:22:36;;;;;;;12.85;5.50;;;;;;;-0.31;76.41;101851.09;4981035;28;20054;-89
2024/01/21 06:25:03;;;;;;;15.88;6.15;;;;;;;-0.26;76.06;101835.97;4979079;28;20034;-89
2024/01/21 06:27:28;;;;;;;14.43;5.88;;;;;;;-0.32;75.36;101845.13;4978114;28;20027;-89
2024/01/21 06:29:54;;;;;;;13.90;5.55;;;;;;;-0.25;74.87;101864.13;4977618;28;20022;-90
2024/01/21 06:32:19;;;;;;;14.13;5.90;;;;;;;-0.22;75.83;101859.16;4976301;28;20034;-90
2024/01/21 06:34:44;;;;;;;13.88;5.90;;;;;;;-0.25;75.08;101841.16;4975995;28;20459;-93
2024/01/21 06:37:09;;;;;;;12.43;5.60;;;;;;;-0.26;75.59;101848.75;4977136;28;20026;-94
2024/01/21 06:39:35;;;;;;;15.80;5.97;;;;;;;-0.26;76.10;101851.28;4977057;28;20026;-89
2024/01/21 06:42:01;;;;;;;13.35;5.43;;;;;;;-0.24;74.88;101855.69;4976316;28;20058;-90
2024/01/21 06:44:26;;;;;;;13.70;5.57;;;;;;;-0.21;73.91;101865.16;4977024;28;20038;-95
2024/01/21 06:46:52;;;;;;;14.48;5.55;;;;;;;-0.15;73.69;101847.53;4977636;28;20549;-89
2024/01/21 06:49:17;;;;;;;14.13;6.00;;;;;;;-0.15;74.05;101855.19;4976594;28;20585;-89
2024/01/21 06:51:53;;;;;;;12.95;5.90;;;;;;;-0.14;74.55;101851.84;4976091;28;20031;-90
2024/01/21 06:54:19;;;;;;;13.15;5.43;;;;;;;-0.07;75.31;101865.75;4977281;28;20031;-89
2024/01/21 06:56:45;;;;;;;13.05;5.18;;;;;;;-0.07;75.46;101869.19;4976623;28;20043;-89
2024/01/21 06:59:10;;;;;;;13.45;5.25;;;;;;;-0.09;74.94;101875.91;4976903;28;20046;-90
2024/01/21 07:01:36;;;;;;;13.90;5.10;;;;;;;-0.07;74.55;101861.53;4977012;28;20041;-89
2024/01/21 07:04:01;;;;;;;11.48;5.15;;;;;;;-0.05;75.69;101846.28;4976814;28;20105;-89
2024/01/21 07:06:26;;;;;;;13.38;5.50;;;;;;;-0.09;73.25;101836.75;4976763;28;20027;-89
2024/01/21 07:08:51;;;;;;;14.23;5.95;;;;;;;0.06;74.31;101829.75;4977072;28;20019;-89
2024/01/21 07:11:17;;;;;;;13.40;5.68;;;;;;;0.19;72.72;101826.06;4975980;28;20175;-89
2024/01/21 07:13:42;;;;;;;13.50;5.97;;;;;;;0.06;72.99;101801.69;4976376;28;20038;-90
2024/01/21 07:16:07;;;;;;;13.18;5.63;;;;;;;0.05;72.64;101789.72;4975638;28;20549;-87
2024/01/21 07:18:33;;;;;;;13.73;5.72;;;;;;;0.07;73.44;101792.34;4965710;28;20229;-89
2024/01/21 07:20:58;;;;;;;13.02;5.38;;;;;;;0.05;72.93;101799.94;4955987;29;20027;-86
2024/01/21 07:23:23;;;;;;;13.38;5.25;;;;;;;0.09;73.15;101783.06;4956193;29;20106;-89
2024/01/21 07:25:49;;;;;;;12.57;5.65;;;;;;;0.06;72.25;101806.78;4956710;29;20189;-89
2024/01/21 07:28:15;;;;;;;14.45;5.53;;;;;;;0.07;72.16;101798.34;4956676;29;20114;-88
2024/01/21 07:30:41;;;;;;;11.00;5.03;;;;;;;0.19;72.49;101797.13;4955824;29;20042;-88
2024/01/21 07:33:06;;;;;;;12.50;5.70;;;;;;;0.11;71.93;101799.34;4955916;29;20031;-89
2024/01/21 07:35:31;;;;;;;14.68;5.95;;;;;;;0.21;71.98;101804.03;4956223;29;20019;-88
2024/01/21 07:37:57;;;;;;;14.23;5.68;;;;;;;0.12;71.07;101796.84;4955765;29;20031;-89
2024/01/21 07:40:22;;;;;;;13.15;5.57;;;;;;;0.16;72.00;101802.97;4956070;29;20051;-89
2024/01/21 07:42:47;;;;;;;14.20;5.53;;;;;;;0.14;71.88;101800.34;4956022;29;20023;-89
2024/01/21 07:45:13;;;;;;;11.57;5.22;;;;;;;0.12;71.64;101783.22;4955627;28;20050;-88
2024/01/21 07:47:38;;;;;;;13.27;5.68;;;;;;;0.23;70.98;101801.53;4955457;29;20106;-88
2024/01/21 07:50:07;;;;;;;12.90;5.35;;;;;;;0.17;72.29;101803.81;4955316;29;20023;-89
2024/01/21 07:52:32;;;;;;;12.35;5.15;;;;;;;0.08;71.86;101827.28;4955850;29;20027;-89
2024/01/21 07:54:58;;;;;;;10.23;5.10;;;;;;;0.05;71.58;101840.78;4956958;29;20078;-89
2024/01/21 07:57:23;;;;;;;13.25;5.43;;;;;;;0.04;68.88;101821.16;4956333;29;20027;-88
2024/01/21 07:59:49;;;;;;;12.27;5.13;;;;;;;0.07;69.26;101839.19;4956121;29;20057;-87
2024/01/21 08:02:14;;;;;;;11.48;5.30;;;;;;;0.08;70.85;101847.69;4955407;29;20031;-88
2024/01/21 08:04:41;;;;;;;11.73;5.10;;;;;;;0.09;71.29;101860.53;4956094;29;20023;-90
2024/01/21 08:07:06;;;;;;;10.93;5.20;;;;;;;0.11;69.90;101881.88;4955926;29;20027;-90
2024/01/21 08:09:31;;;;;;;12.93;5.28;;;;;;;0.14;70.18;101891.38;4955587;29;20170;-88
2024/01/21 08:11:56;;;;;;;11.93;5.15;;;;;;;0.08;70.46;101904.75;4955649;29;20035;-88
2024/01/21 08:14:22;;;;;;;11.18;5.00;;;;;;;0.08;71.90;101908.97;4955229;29;20047;-88
2024/01/21 08:16:47;;;;;;;11.25;4.82;;;;;;;0.07;70.54;101918.31;4954955;29;20050;-88
2024/01/21 08:19:12;;;;;;;11.20;4.88;;;;;;;0.08;70.83;101914.94;4955906;29;20034;-89
2024/01/21 08:21:38;;;;;;;11.02;4.53;;;;;;;0.13;72.63;101923.69;4954915;29;20020;-88
2024/01/21 08:24:03;;;;;;;12.27;4.97;;;;;;;0.23;73.25;101921.53;4962484;28;20027;-87
2024/01/21 08:26:29;;;;;;;10.35;4.57;;;;;;;0.23;72.12;101907.09;4973319;28;20035;-85
2024/01/21 08:28:56;;;;;;;11.10;4.80;;;;;;;0.33;72.66;101894.72;4974201;28;20134;-88
2024/01/21 08:31:21;;;;;;;10.70;4.90;;;;;;;0.34;71.99;101896.47;4974743;28;20030;-89
2024/01/21 08:33:46;;;;;;;12.95;5.10;;;;;;;0.39;72.23;101895.00;4974063;28;20037;-87
2024/01/21 08:36:11;;;;;;;11.88;4.78;;;;;;;0.42;71.98;101882.34;4974249;28;20031;-84
2024/01/21 08:38:38;;;;;;;14.32;5.38;;;;;;;0.51;71.77;101869.13;4962538;28;20035;-89
2024/01/21 08:41:04;;;;;;;13.15;5.60;;;;;;;0.62;71.39;101878.09;4965787;28;20089;-89
2024/01/21 08:43:29;;;;;;;11.02;4.88;;;;;;;0.57;71.68;101864.25;4940049;28;20051;-90
2024/01/21 08:45:55;;;;;;;11.82;5.18;;;;;;;0.60;71.93;101869.50;4968606;28;20057;-91
2024/01/21 08:48:21;;;;;;;11.95;5.28;;;;;;;0.65;72.95;101868.03;4953986;28;20122;-91
2024/01/21 08:50:47;;;;;;;11.35;5.10;;;;;;;0.72;72.24;101875.13;4954723;29;20430;-90
2024/01/21 08:53:12;;;;;;;9.70;4.60;;;;;;;0.69;72.44;101890.31;4955490;29;20027;-90
2024/01/21 08:55:37;;;;;;;11.60;4.90;;;;;;;0.74;72.95;101900.72;4978819;23;20158;-91
2024/01/21 08:58:03;;;;;;;13.88;5.30;;;;;;;0.77;72.33;101896.66;4974414;28;20031;-90
2024/01/21 09:00:28;;;;;;;13.68;5.35;;;;;;;0.82;73.70;101901.94;4964346;28;20399;-91
2024/01/21 09:02:53;;;;;;;12.30;5.15;;;;;;;0.89;73.70;101888.59;4993817;28;20026;-90
2024/01/21 09:05:19;;;;;;;12.70;5.15;;;;;;;0.91;73.86;101887.00;4991534;28;20125;-91
2024/01/21 09:07:44;;;;;;;12.43;5.25;;;;;;;0.95;74.73;101893.09;4956278;28;20030;-91
2024/01/21 09:10:09;;;;;;;14.35;5.95;;;;;;;1.16;73.98;101889.66;4961229;28;20089;-89
2024/01/21 09:12:35;;;;;;;13.10;5.60;;;;;;;1.06;74.48;101873.09;4959571;28;20043;-92
2024/01/21 09:15:02;;;;;;;13.55;5.60;;;;;;;1.12;75.16;101882.69;4960823;28;20030;-92
2024/01/21 09:17:27;;;;;;;10.48;4.88;;;;;;;1.00;77.32;101896.72;4975247;28;20059;-90
2024/01/21 09:19:52;;;;;;;13.95;5.75;;;;;;;0.98;77.80;101907.69;4974372;28;20542;-90
2024/01/21 09:22:18;;;;;;;13.18;5.45;;;;;;;0.96;78.63;101910.19;4974503;28;20418;-90
2024/01/21 09:24:43;;;;;;;9.35;4.55;;;;;;;1.10;79.85;101909.88;4974702;28;20126;-88
2024/01/21 09:27:08;;;;;;;13.65;5.47;;;;;;;1.08;77.96;101920.03;4959110;23;20070;-93
2024/01/21 09:29:34;;;;;;;10.80;5.07;;;;;;;1.04;79.56;101929.25;4936039;29;20019;-93
2024/01/21 09:31:59;;;;;;;11.32;4.97;;;;;;;1.07;79.81;101921.72;4936249;29;20034;-92
2024/01/21 09:34:25;;;;;;;11.32;4.90;;;;;;;1.08;81.37;101915.81;4940606;29;20051;-92
2024/01/21 09:36:51;;;;;;;10.50;5.03;;;;;;;1.01;81.69;101912.94;4935777;29;20376;-91
2024/01/21 09:39:18;;;;;;;11.48;4.90;;;;;;;1.10;81.92;101930.34;4943058;29;20051;-93
2024/01/21 09:41:50;;;;;;;11.23;4.85;;;;;;;1.05;82.82;101920.78;4936627;29;20031;-92
2024/01/21 09:44:27;;;;;;;11.25;4.90;;;;;;;1.10;83.76;101938.88;4928432;29;20147;-92
2024/01/21 09:46:54;;;;;;;13.27;5.35;;;;;;;1.13;83.54;101938.13;4974258;23;20082;-90
2024/01/21 09:49:20;;;;;;;9.95;4.70;;;;;;;1.10;84.67;101943.97;4981516;23;20493;-90
2024/01/21 09:51:47;;;;;;;9.57;4.72;;;;;;;1.13;83.99;101940.66;4975199;28;20109;-91
2024/01/21 09:54:13;;;;;;;11.35;4.60;;;;;;;1.06;85.17;101932.75;4974345;28;20031;-91
2024/01/21 09:56:40;;;;;;;11.15;4.80;;;;;;;1.03;85.25;101937.75;4974692;28;20037;-91
2024/01/21 09:59:08;;;;;;;10.80;4.93;;;;;;;1.06;85.53;101955.78;4975843;28;20019;-91
2024/01/21 10:01:34;;;;;;;12.27;5.13;;;;;;;1.09;87.05;101939.69;4975909;28;20038;-91
2024/01/21 10:03:59;;;;;;;11.45;5.10;;;;;;;1.02;86.85;101936.00;4975099;28;20030;-91
2024/01/21 10:06:25;;;;;;;9.43;4.55;;;;;;;1.07;88.63;101939.63;4976640;28;20042;-91
2024/01/21 10:08:50;;;;;;;10.27;4.47;;;;;;;1.13;86.97;101935.56;4977866;28;20023;-91
2024/01/21 10:14:03;;;;;;;10.35;4.60;;;;;;;1.00;88.06;101903.50;4982816;28;20411;-91
2024/01/21 10:16:28;;;;;;;10.40;4.70;;;;;;;1.12;90.26;101929.59;4988725;28;20026;-92
2024/01/21 10:18:53;;;;;;;9.32;4.40;;;;;;;1.18;89.06;101934.06;4987088;28;20113;-92
2024/01/21 10:21:19;;;;;;;10.70;4.75;;;;;;;1.25;88.34;101930.09;4993866;28;20090;-92
2024/01/21 10:24:06;;;;;;;11.40;4.78;;;;;;;1.25;89.50;101935.19;4997538;28;20022;-92
2024/01/21 10:26:31;;;;;;;12.70;5.25;;;;;;;1.27;92.07;101910.56;4982027;28;20037;-93
2024/01/21 10:28:56;;;;;;;13.10;5.43;;;;;;;1.32;91.70;101907.38;4979168;28;20109;-92
2024/01/21 10:31:47;;;;;;;12.98;5.50;;;;;;;1.38;91.85;101899.94;4976478;28;20061;-93
2024/01/21 10:34:13;;;;;;;12.88;5.18;;;;;;;1.41;93.77;101906.00;4977141;28;20115;-94
2024/01/21 10:37:15;;;;;;;9.18;4.68;;;;;;;1.48;91.59;101900.28;4977761;28;20109;-93
2024/01/21 10:40:06;;;;;;;11.95;5.25;;;;;;;1.44;92.83;101885.66;4977151;28;20034;-94
2024/01/21 10:42:32;;;;;;;13.02;5.72;;;;;;;1.53;92.27;101898.81;4977218;28;20045;-93
2024/01/21 10:45:20;;;;;;;13.57;5.60;;;;;;;1.51;91.29;101885.97;4976930;28;20069;-93
2024/01/21 10:47:46;;;;;;;11.10;4.78;;;;;;;1.61;92.96;101888.88;4974904;28;20031;-91
2024/01/21 10:50:12;;;;;;;12.20;5.37;;;;;;;1.51;92.90;101880.84;4976118;28;20054;-94
2024/01/21 10:53:01;;;;;;;12.07;5.38;;;;;;;1.60;92.30;101876.88;4977258;28;20077;-94
2024/01/21 10:55:28;;;;;;;13.88;5.80;;;;;;;1.63;92.74;101874.47;4977103;28;20108;-94
2024/01/21 10:57:54;;;;;;;13.55;5.55;;;;;;;1.57;93.18;101858.84;4978606;28;20027;-94
2024/01/21 11:00:39;;;;;;;14.70;5.90;;;;;;;1.76;92.01;101863.84;4975954;28;20045;-95
2024/01/21 11:03:35;;;;;;;15.15;5.88;;;;;;;1.75;92.38;101867.22;4976830;28;20038;-94
2024/01/21 11:06:09;;;;;;;13.02;5.90;;;;;;;1.66;93.23;101836.16;4977014;28;20027;-94
2024/01/21 11:08:53;;;;;;;13.68;5.72;;;;;;;1.70;93.02;101846.56;4976682;28;20750;-94
2024/01/21 11:11:22;;;;;;;13.57;5.70;;;;;;;1.95;91.41;101857.72;4976559;28;20219;-94
2024/01/21 11:13:49;;;;;;;13.50;5.50;;;;;;;2.00;91.65;101861.34;4977272;28;20034;-95
2024/01/21 11:16:28;;;;;;;10.55;5.30;;;;;;;2.04;92.01;101876.78;4976624;28;20032;-93
2024/01/21 11:18:56;;;;;;;11.07;4.97;;;;;;;2.11;92.23;101881.34;4972660;28;20039;-94
2024/01/21 11:21:41;;;;;;;12.32;5.30;;;;;;;2.21;91.21;101872.28;4974893;28;20027;-93
2024/01/21 11:24:12;;;;;;;11.95;5.30;;;;;;;2.22;91.31;101867.22;4968832;28;20372;-94
2024/01/21 11:26:57;;;;;;;13.57;5.80;;;;;;;2.29;90.36;101866.63;4976686;28;20104;-92
2024/01/21 11:29:31;;;;;;;13.40;5.70;;;;;;;2.25;91.20;101862.19;4974577;28;20031;-93